РПИ Ташкент

Руководство

Evgeny Vygornitsky*

Куратор
Инструкторы РПИ
Evgeny Vygornitsky (Supervisor)
Входит в состав
Центральная Азия

Диспетчеры РПИ

Диспетчер Рейтинг Допуски *
Anatoly Bajenov Senior Student UTTR_CTR  *
Evgeniy Dedyaev Senior Student UTTR_CTR  *
Khurshidjon Ismoilov Senior Student UTTR_CTR  *
Vitaliy Alekseyev Controller UTTR_CTR
Arman Maxatov Student 2 UTTT_TWR
Timofey Abramchuck Senior Student UTTT_GND

Аэропорты РПИ

ICAO Город Название Погода
UTTT Ташкент Ташкент UTTT 020730Z VRB02KT 4000 -SHSN BR OVC011CB 01/M01 Q1022 R08R/29//50 NOSIG
UTNU Ургенч Ургенч UTNU 020730Z 35006KT CAVOK 05/M06 Q1025 R31/CLRD70 NOSIG
UTFA Андижан Андижан
UTFN Наманган Наманган UTFN 020730Z VRB02KT 0800 R28/0800N SN FG OVC003 00/00 Q1019 R28/290160 NOSIG RMK BASE360
UTNN Нукус Нукус UTNN 020730Z 33006KT CAVOK 03/M08 Q1026 R33/CLRD60 NOSIG
UTFF Фергана Фергана UTFF 020730Z 31004KT 1700 SN BR OVC007 01/M01 Q1020 R18/29//50